This is the latest recevied weather packets stored in our database for station/object SR7U-1. If no packets are shown the sender has not sent any weather packets the latest 10 day(s).
| Time | Temp. | Humidity | Pressure | Rain* | Wind** | Luminosity | Snow |
|---|---|---|---|---|---|---|---|
| 1777711135 | 17.22° C | 45% | 1025.1 hPa | - | - | - | - |
| 1777710250 | 17.78° C | 42% | 1025.2 hPa | - | - | - | - |
| 1777709505 | 17.22° C | 46% | 1025.2 hPa | - | - | - | - |
| 1777708750 | 17.78° C | 46% | 1025.3 hPa | - | - | - | - |
| 1777708005 | 16.11° C | 50% | 1025.4 hPa | - | - | - | - |
| 1777707114 | 15.56° C | 52% | 1025.3 hPa | - | - | - | - |
| 1777706380 | 16.67° C | 47% | 1025.3 hPa | - | - | - | - |
| 1777705560 | 16.11° C | 49% | 1025.2 hPa | - | - | - | - |
| 1777704797 | 14.44° C | 52% | 1025.3 hPa | - | - | - | - |
| 1777703932 | 15.56° C | 50% | 1025.3 hPa | - | - | - | - |
| 1777703095 | 15.56° C | 50% | 1025.3 hPa | - | - | - | - |
| 1777702274 | 14.44° C | 55% | 1025.3 hPa | - | - | - | - |
| 1777701525 | 13.33° C | 57% | 1025.3 hPa | - | - | - | - |
| 1777700735 | 12.22° C | 55% | 1025.2 hPa | - | - | - | - |
| 1777699868 | 12.22° C | 57% | 1025.1 hPa | - | - | - | - |
| 1777699002 | 11.11° C | 59% | 1025.1 hPa | - | - | - | - |
| 1777698188 | 10.56° C | 62% | 1025 hPa | - | - | - | - |
| 1777697300 | 10.56° C | 62% | 1025 hPa | - | - | - | - |
| 1777696560 | 9.44° C | 65% | 1025 hPa | - | - | - | - |
| 1777695755 | 8.33° C | 69% | 1024.9 hPa | - | - | - | - |
| 1777694945 | 7.78° C | 70% | 1024.8 hPa | - | - | - | - |
| 1777694170 | 6.11° C | 76% | 1024.7 hPa | - | - | - | - |
| 1777693395 | 4.44° C | 83% | 1024.6 hPa | - | - | - | - |
| 1777692600 | 4.44° C | 83% | 1024.6 hPa | - | - | - | - |
| 1777691880 | 5° C | 80% | 1024.7 hPa | - | - | - | - |
* Rain since midnight (hover to see other rain measurements)
** Current wind speed in m/s (hover to see current wind gust speed)